Time;durP1;ratioP1;P1;durP2;ratioP2;P2;SDS_P1;SDS_P2;PMS_P1;PMS_P2;Temp;Humidity;BMP_temperature;BMP_pressure;BME280_temperature;BME280_humidity;BME280_pressure;Samples;Min_cycle;Max_cycle;Signal;HPM_P1;HPM_P2
2020/12/28 00:02:16;;;;;;;0.50;0.50;;;6.60;99.90;;;;;;5043528;28;20195;-78
2020/12/28 00:04:41;;;;;;;0.50;0.50;;;6.60;99.90;;;;;;5044640;28;20175;-80
2020/12/28 00:07:07;;;;;;;0.90;0.60;;;6.50;99.90;;;;;;5047008;28;20187;-80
2020/12/28 00:09:33;;;;;;;0.60;0.60;;;6.40;99.90;;;;;;5044317;28;20315;-80
2020/12/28 00:11:59;;;;;;;0.60;0.60;;;6.30;99.90;;;;;;5048309;28;21029;-80
2020/12/28 00:14:27;;;;;;;1.03;0.60;;;6.20;99.90;;;;;;5044148;28;20202;-79
2020/12/28 00:16:53;;;;;;;0.70;0.60;;;6.10;99.90;;;;;;5048168;28;20430;-80
2020/12/28 00:19:19;;;;;;;1.23;0.40;;;6.00;99.90;;;;;;5043139;28;20478;-80
2020/12/28 00:21:44;;;;;;;0.60;0.60;;;6.00;99.90;;;;;;5045473;28;20451;-81
2020/12/28 00:24:11;;;;;;;0.83;0.83;;;6.00;99.90;;;;;;5039454;28;20645;-80
2020/12/28 00:26:41;;;;;;;0.60;0.60;;;5.90;99.90;;;;;;5045586;28;20648;-79
2020/12/28 00:29:07;;;;;;;0.70;0.60;;;5.80;99.90;;;;;;5047372;28;20421;-80
2020/12/28 00:31:33;;;;;;;2.00;0.60;;;5.70;99.90;;;;;;5046655;28;20428;-80
2020/12/28 00:34:00;;;;;;;0.80;0.70;;;5.70;99.90;;;;;;5043867;28;20519;-80
2020/12/28 00:36:26;;;;;;;0.87;0.67;;;5.60;99.90;;;;;;5045254;28;20438;-80
2020/12/28 00:38:52;;;;;;;1.33;0.60;;;5.50;99.90;;;;;;5041746;28;20462;-80
2020/12/28 00:41:17;;;;;;;1.43;0.60;;;5.50;99.90;;;;;;5046679;28;20195;-80
2020/12/28 00:43:43;;;;;;;1.10;0.67;;;5.40;99.90;;;;;;5044467;28;20202;-80
2020/12/28 00:46:10;;;;;;;1.47;0.70;;;5.40;99.90;;;;;;5042957;28;20177;-80
2020/12/28 00:48:36;;;;;;;0.53;0.50;;;5.40;99.90;;;;;;5046444;28;20425;-80
2020/12/28 00:51:02;;;;;;;0.80;0.60;;;5.50;99.90;;;;;;5045629;28;20427;-80
2020/12/28 00:53:28;;;;;;;0.60;0.60;;;5.50;99.90;;;;;;5049223;28;20794;-79
2020/12/28 00:55:55;;;;;;;0.63;0.63;;;5.60;99.90;;;;;;5040791;28;20792;-80
2020/12/28 00:58:20;;;;;;;2.00;0.90;;;5.60;99.90;;;;;;5046283;28;20797;-80
2020/12/28 01:00:46;;;;;;;1.00;0.63;;;5.70;99.90;;;;;;5043255;28;20428;-80
2020/12/28 01:03:12;;;;;;;0.50;0.50;;;5.70;99.90;;;;;;5045799;28;20268;-79
2020/12/28 01:05:37;;;;;;;1.33;0.50;;;5.80;99.90;;;;;;5044578;28;20608;-80
2020/12/28 01:08:03;;;;;;;1.20;0.60;;;5.80;99.90;;;;;;5043507;28;20191;-79
2020/12/28 01:10:28;;;;;;;1.07;0.70;;;5.90;99.90;;;;;;5042276;28;20289;-80
2020/12/28 01:12:54;;;;;;;0.57;0.50;;;5.90;99.90;;;;;;5039225;28;20214;-79
2020/12/28 01:15:19;;;;;;;0.73;0.50;;;6.10;99.90;;;;;;5041471;28;20643;-80
2020/12/28 01:17:45;;;;;;;0.77;0.77;;;6.10;99.90;;;;;;5045127;28;20215;-80
2020/12/28 01:20:10;;;;;;;0.97;0.77;;;6.10;99.90;;;;;;5044446;28;20680;-80
2020/12/28 01:22:36;;;;;;;0.50;0.50;;;6.10;99.90;;;;;;5045692;28;20210;-80
2020/12/28 01:25:01;;;;;;;0.50;0.50;;;6.00;99.90;;;;;;5042698;28;20550;-80
2020/12/28 01:27:26;;;;;;;0.73;0.60;;;6.00;99.90;;;;;;5043417;28;20647;-80
2020/12/28 01:29:52;;;;;;;0.50;0.50;;;6.00;99.90;;;;;;5045781;28;20236;-80
2020/12/28 01:32:17;;;;;;;0.50;0.50;;;6.10;99.90;;;;;;5043851;28;20207;-80
2020/12/28 01:34:43;;;;;;;0.50;0.50;;;6.10;99.90;;;;;;5044861;28;20187;-80
2020/12/28 01:37:08;;;;;;;2.77;0.80;;;6.10;99.90;;;;;;5041741;28;20182;-78
2020/12/28 01:39:34;;;;;;;0.70;0.70;;;6.20;99.90;;;;;;5044716;28;20211;-78
2020/12/28 01:41:59;;;;;;;0.70;0.70;;;6.20;99.90;;;;;;5041786;28;20200;-78
2020/12/28 01:44:25;;;;;;;0.50;0.50;;;6.20;99.90;;;;;;5043052;28;20676;-78
2020/12/28 01:46:50;;;;;;;0.83;0.60;;;6.20;99.90;;;;;;5039385;28;20262;-78
2020/12/28 01:49:16;;;;;;;0.70;0.70;;;6.10;99.90;;;;;;5042024;28;20567;-79
2020/12/28 01:51:43;;;;;;;0.60;0.60;;;6.20;99.90;;;;;;5043366;28;20216;-79
2020/12/28 01:54:10;;;;;;;0.60;0.60;;;6.20;99.90;;;;;;5041738;28;20181;-78
2020/12/28 01:56:37;;;;;;;0.50;0.50;;;6.20;99.90;;;;;;5044057;28;20956;-78
2020/12/28 01:59:03;;;;;;;0.57;0.57;;;6.20;99.90;;;;;;5045088;28;20841;-79
2020/12/28 02:01:34;;;;;;;0.70;0.50;;;6.20;99.90;;;;;;5074286;28;20436;-79
2020/12/28 02:04:00;;;;;;;1.00;0.70;;;6.20;99.90;;;;;;5047161;28;20170;-79
2020/12/28 02:06:26;;;;;;;0.90;0.70;;;6.20;99.90;;;;;;5043256;28;20427;-79
2020/12/28 02:08:51;;;;;;;0.73;0.70;;;6.20;99.90;;;;;;5045331;28;20186;-78
2020/12/28 02:11:17;;;;;;;3.10;1.17;;;6.20;99.90;;;;;;5043593;28;20182;-78
2020/12/28 02:13:42;;;;;;;0.40;0.40;;;6.20;99.90;;;;;;5043675;28;20223;-78
2020/12/28 02:16:08;;;;;;;0.80;0.80;;;6.10;99.90;;;;;;5044256;28;20183;-78
2020/12/28 02:18:34;;;;;;;0.50;0.50;;;6.20;99.90;;;;;;5040574;28;20188;-78
2020/12/28 02:20:59;;;;;;;0.60;0.50;;;6.20;99.90;;;;;;5045292;28;20800;-77
2020/12/28 02:23:25;;;;;;;0.60;0.60;;;6.20;99.90;;;;;;5041222;28;20727;-78
2020/12/28 02:25:50;;;;;;;0.87;0.67;;;6.20;99.90;;;;;;5041288;28;20170;-78
2020/12/28 02:28:16;;;;;;;0.83;0.83;;;6.10;99.90;;;;;;5046119;28;20181;-79
2020/12/28 02:30:41;;;;;;;0.90;0.70;;;6.10;99.90;;;;;;5046210;28;20192;-79
2020/12/28 02:33:07;;;;;;;0.80;0.70;;;6.10;99.90;;;;;;5044510;28;20207;-78
2020/12/28 02:35:32;;;;;;;0.60;0.60;;;6.00;99.90;;;;;;5045919;28;20549;-78
2020/12/28 02:37:58;;;;;;;0.63;0.63;;;6.00;99.90;;;;;;5046049;28;20179;-79
2020/12/28 02:40:23;;;;;;;0.70;0.70;;;5.90;99.90;;;;;;5043735;28;20219;-79
2020/12/28 02:42:49;;;;;;;0.80;0.80;;;5.80;99.90;;;;;;5044099;28;20212;-80
2020/12/28 02:45:15;;;;;;;0.70;0.70;;;5.80;99.90;;;;;;5044740;28;20177;-79
2020/12/28 02:47:40;;;;;;;1.37;0.90;;;5.70;99.90;;;;;;5045485;28;20266;-79
2020/12/28 02:50:06;;;;;;;1.10;0.70;;;5.70;99.90;;;;;;5045475;28;20180;-79
2020/12/28 02:52:31;;;;;;;1.27;0.70;;;5.70;99.90;;;;;;5045704;28;20384;-79
2020/12/28 02:54:56;;;;;;;0.93;0.80;;;5.70;99.90;;;;;;5044163;28;20192;-79
2020/12/28 02:57:22;;;;;;;0.90;0.90;;;5.70;99.90;;;;;;5042860;28;20181;-79
2020/12/28 02:59:47;;;;;;;0.80;0.70;;;5.60;99.90;;;;;;5045042;28;20210;-79
2020/12/28 03:02:13;;;;;;;0.70;0.70;;;5.60;99.90;;;;;;5045834;28;20203;-79
2020/12/28 03:04:38;;;;;;;0.50;0.50;;;5.60;99.90;;;;;;5044904;28;20662;-79
2020/12/28 03:07:04;;;;;;;0.60;0.60;;;5.60;99.90;;;;;;5043795;28;20175;-79
2020/12/28 03:09:29;;;;;;;0.60;0.60;;;5.60;99.90;;;;;;5027721;28;20651;-80
2020/12/28 03:11:55;;;;;;;0.70;0.70;;;5.60;99.90;;;;;;5042796;28;20201;-79
2020/12/28 03:14:20;;;;;;;0.80;0.67;;;5.50;99.90;;;;;;5043976;28;20182;-79
2020/12/28 03:16:46;;;;;;;0.60;0.60;;;5.50;99.90;;;;;;5044163;28;20186;-79
2020/12/28 03:19:11;;;;;;;0.60;0.60;;;5.50;99.90;;;;;;5043763;28;20645;-80
2020/12/28 03:21:37;;;;;;;0.80;0.63;;;5.40;99.90;;;;;;5045734;28;20185;-79
2020/12/28 03:24:02;;;;;;;0.50;0.50;;;5.40;99.90;;;;;;5043563;28;20182;-80
2020/12/28 03:26:28;;;;;;;0.60;0.60;;;5.40;99.90;;;;;;5048283;28;20605;-80
2020/12/28 03:28:53;;;;;;;0.60;0.60;;;5.40;99.90;;;;;;5046781;28;20236;-80
2020/12/28 03:31:19;;;;;;;0.67;0.60;;;5.40;99.90;;;;;;5045316;28;20187;-79
2020/12/28 03:33:44;;;;;;;0.70;0.60;;;5.40;99.90;;;;;;5045408;28;20566;-79
2020/12/28 03:36:10;;;;;;;0.70;0.70;;;5.30;99.90;;;;;;5047963;28;20189;-79
2020/12/28 03:38:35;;;;;;;0.50;0.50;;;5.30;99.90;;;;;;5047306;28;20189;-79
2020/12/28 03:41:01;;;;;;;0.60;0.60;;;5.30;99.90;;;;;;5046037;28;20612;-79
2020/12/28 03:43:26;;;;;;;0.70;0.70;;;5.30;99.90;;;;;;5046427;28;20204;-79
2020/12/28 03:45:52;;;;;;;0.70;0.60;;;5.30;99.90;;;;;;5043302;28;20191;-79
2020/12/28 03:48:17;;;;;;;0.80;0.77;;;5.30;99.90;;;;;;5045200;28;20653;-79
2020/12/28 03:50:43;;;;;;;0.50;0.50;;;5.30;99.90;;;;;;5044142;28;20241;-79
2020/12/28 03:53:08;;;;;;;1.70;0.70;;;5.20;99.90;;;;;;5043256;28;20573;-79
2020/12/28 03:55:34;;;;;;;1.10;1.00;;;5.20;99.90;;;;;;5045601;28;20256;-79
2020/12/28 03:57:59;;;;;;;0.70;0.60;;;5.10;99.90;;;;;;5042162;28;20177;-79
2020/12/28 04:00:25;;;;;;;0.70;0.70;;;5.20;99.90;;;;;;5043797;28;20694;-79
2020/12/28 04:02:50;;;;;;;0.70;0.70;;;5.10;99.90;;;;;;5042629;28;20251;-79
2020/12/28 04:05:16;;;;;;;0.77;0.77;;;5.00;99.90;;;;;;5041427;28;20200;-79
2020/12/28 04:07:42;;;;;;;0.60;0.50;;;5.00;99.90;;;;;;5041909;28;20253;-78
2020/12/28 04:10:07;;;;;;;0.60;0.60;;;5.00;99.90;;;;;;5041742;28;20429;-79
2020/12/28 04:12:33;;;;;;;2.50;0.57;;;4.90;99.90;;;;;;5040477;28;20235;-78
2020/12/28 04:14:58;;;;;;;0.57;0.50;;;4.90;99.90;;;;;;5043363;28;20241;-79
2020/12/28 04:17:24;;;;;;;0.70;0.50;;;4.90;99.90;;;;;;5039714;28;20504;-78
2020/12/28 04:19:49;;;;;;;1.73;0.60;;;4.90;99.90;;;;;;5042653;28;20206;-78
2020/12/28 04:22:15;;;;;;;0.70;0.70;;;4.80;99.90;;;;;;5039128;28;20397;-79
2020/12/28 04:24:40;;;;;;;0.60;0.60;;;4.80;99.90;;;;;;5041703;28;20181;-79
2020/12/28 04:27:06;;;;;;;0.80;0.60;;;4.70;99.90;;;;;;5040552;28;20173;-78
2020/12/28 04:29:31;;;;;;;0.93;0.50;;;4.70;99.90;;;;;;5039477;28;20247;-78
2020/12/28 04:31:57;;;;;;;0.70;0.60;;;4.80;99.90;;;;;;5042636;28;20578;-78
2020/12/28 04:34:22;;;;;;;0.50;0.50;;;4.70;99.90;;;;;;5039893;28;20182;-80
2020/12/28 04:36:48;;;;;;;0.60;0.50;;;4.80;99.90;;;;;;5039151;28;20290;-78
2020/12/28 04:39:13;;;;;;;0.53;0.53;;;4.80;99.90;;;;;;5041193;28;20205;-78
2020/12/28 04:41:39;;;;;;;0.40;0.40;;;4.80;99.90;;;;;;5039653;28;20232;-78
2020/12/28 04:44:04;;;;;;;0.50;0.50;;;4.80;99.90;;;;;;5040160;28;20651;-78
2020/12/28 04:46:31;;;;;;;0.40;0.40;;;4.90;99.90;;;;;;5040688;28;20180;-78
2020/12/28 04:48:57;;;;;;;0.50;0.50;;;4.80;99.90;;;;;;5039332;28;20591;-79
2020/12/28 04:51:23;;;;;;;0.50;0.50;;;4.90;99.90;;;;;;5063140;28;20420;-78
2020/12/28 04:53:52;;;;;;;0.40;0.40;;;4.90;99.90;;;;;;5040457;28;20423;-78
2020/12/28 04:56:19;;;;;;;0.40;0.40;;;4.90;99.90;;;;;;5039102;28;20436;-78
2020/12/28 04:58:44;;;;;;;0.40;0.40;;;4.90;99.90;;;;;;5042577;28;20462;-78
2020/12/28 05:01:10;;;;;;;0.43;0.40;;;4.90;99.90;;;;;;5041659;28;20466;-78
2020/12/28 05:03:35;;;;;;;0.40;0.40;;;4.90;99.90;;;;;;5043859;28;20588;-78
2020/12/28 05:06:01;;;;;;;0.90;0.50;;;4.90;99.90;;;;;;5041103;28;20182;-78
2020/12/28 05:08:26;;;;;;;0.83;0.40;;;4.90;99.90;;;;;;5041731;28;20184;-79
2020/12/28 05:10:52;;;;;;;0.50;0.50;;;4.90;99.90;;;;;;5038852;28;20187;-78
2020/12/28 05:13:18;;;;;;;0.60;0.40;;;4.90;99.90;;;;;;5041562;28;20718;-78
2020/12/28 05:15:48;;;;;;;0.40;0.40;;;4.90;99.90;;;;;;5041245;28;20187;-79
2020/12/28 05:18:15;;;;;;;0.40;0.40;;;4.90;99.90;;;;;;5041564;28;20425;-79
2020/12/28 05:20:45;;;;;;;0.40;0.40;;;5.00;99.90;;;;;;5042595;28;20463;-78
2020/12/28 05:23:12;;;;;;;0.30;0.30;;;5.00;99.90;;;;;;5040701;28;20535;-78
2020/12/28 05:25:42;;;;;;;0.50;0.50;;;5.00;99.90;;;;;;5042185;28;20421;-79
2020/12/28 05:28:13;;;;;;;0.40;0.40;;;5.00;99.90;;;;;;5046946;28;20503;-78
2020/12/28 05:30:43;;;;;;;0.50;0.40;;;5.10;99.90;;;;;;5065466;28;20435;-78
2020/12/28 05:33:09;;;;;;;0.60;0.40;;;5.10;99.90;;;;;;5044479;28;20890;-79
2020/12/28 05:35:35;;;;;;;0.40;0.40;;;5.10;99.90;;;;;;5044194;28;20433;-79
2020/12/28 05:38:01;;;;;;;0.50;0.40;;;5.10;99.90;;;;;;5043288;28;20435;-78
2020/12/28 05:40:27;;;;;;;0.40;0.40;;;5.00;99.90;;;;;;5042379;28;20214;-78
2020/12/28 05:42:55;;;;;;;3.50;0.40;;;5.10;99.90;;;;;;5046177;28;20202;-78
2020/12/28 05:45:20;;;;;;;5.90;0.40;;;5.10;99.90;;;;;;5042809;28;20440;-78
2020/12/28 05:47:57;;;;;;;0.60;0.50;;;5.10;99.90;;;;;;5045534;28;20826;-78
2020/12/28 05:50:32;;;;;;;0.50;0.50;;;5.10;99.90;;;;;;5044076;28;20435;-78
2020/12/28 05:53:02;;;;;;;0.60;0.50;;;5.00;99.90;;;;;;5038713;28;20451;-79
2020/12/28 05:55:29;;;;;;;0.50;0.50;;;5.10;99.90;;;;;;5039676;28;20502;-78
2020/12/28 05:57:57;;;;;;;0.60;0.40;;;5.10;99.90;;;;;;5039187;28;20557;-79
2020/12/28 06:00:23;;;;;;;0.50;0.40;;;5.20;99.90;;;;;;5046611;28;20474;-79
2020/12/28 06:02:49;;;;;;;0.63;0.40;;;5.20;99.90;;;;;;5043660;28;20476;-78
2020/12/28 06:05:17;;;;;;;0.67;0.50;;;5.20;99.90;;;;;;5045424;28;20917;-79
2020/12/28 06:07:43;;;;;;;0.93;0.93;;;5.20;99.90;;;;;;5044639;28;20273;-78
2020/12/28 06:10:10;;;;;;;0.60;0.60;;;5.20;99.90;;;;;;5042456;28;20451;-79
2020/12/28 06:12:36;;;;;;;0.40;0.40;;;5.10;99.90;;;;;;5037815;28;20474;-78
2020/12/28 06:15:03;;;;;;;0.60;0.40;;;5.10;99.90;;;;;;5046070;28;20423;-78
2020/12/28 06:17:33;;;;;;;0.60;0.50;;;5.20;99.90;;;;;;5065210;28;20180;-79
2020/12/28 06:20:01;;;;;;;0.40;0.37;;;5.10;99.90;;;;;;5038505;28;20501;-78
2020/12/28 06:22:27;;;;;;;0.73;0.50;;;5.20;99.90;;;;;;5038120;28;20452;-78
2020/12/28 06:25:13;;;;;;;0.50;0.50;;;5.20;99.90;;;;;;5045044;28;20511;-78
2020/12/28 06:27:41;;;;;;;0.40;0.40;;;5.20;99.90;;;;;;5039760;28;20668;-79
2020/12/28 06:30:09;;;;;;;1.30;0.60;;;5.10;99.90;;;;;;5064763;28;20515;-78
2020/12/28 06:32:34;;;;;;;0.43;0.43;;;5.10;99.90;;;;;;5042349;28;20510;-78
2020/12/28 06:35:02;;;;;;;0.40;0.40;;;5.10;99.90;;;;;;5045803;28;20456;-78
2020/12/28 06:37:28;;;;;;;0.40;0.40;;;5.10;99.90;;;;;;5039510;28;20193;-78
2020/12/28 06:39:57;;;;;;;0.40;0.40;;;5.00;99.90;;;;;;5045936;28;20559;-78
2020/12/28 06:42:23;;;;;;;0.97;0.40;;;5.00;99.90;;;;;;5042521;28;20200;-79
2020/12/28 06:44:49;;;;;;;0.60;0.40;;;5.00;99.90;;;;;;5046131;28;20427;-79
2020/12/28 06:47:15;;;;;;;0.50;0.50;;;5.00;99.90;;;;;;5043615;28;20181;-79
2020/12/28 06:49:41;;;;;;;1.33;0.60;;;5.00;99.90;;;;;;5044529;28;20424;-79
2020/12/28 06:52:07;;;;;;;0.77;0.77;;;5.10;99.90;;;;;;5044173;28;20425;-79
2020/12/28 06:54:32;;;;;;;2.93;0.63;;;5.10;99.90;;;;;;5041660;28;20461;-77
2020/12/28 06:57:03;;;;;;;0.40;0.40;;;5.10;99.90;;;;;;5044961;28;20184;-79
2020/12/28 06:59:28;;;;;;;0.57;0.50;;;5.10;99.90;;;;;;5039662;28;20209;-79
2020/12/28 07:01:54;;;;;;;1.73;0.60;;;5.10;99.90;;;;;;5043385;28;20508;-79
2020/12/28 07:04:21;;;;;;;0.60;0.60;;;5.00;99.90;;;;;;5039757;28;20189;-78
2020/12/28 07:06:46;;;;;;;2.17;0.60;;;5.00;99.90;;;;;;5043357;28;20427;-78
2020/12/28 07:09:12;;;;;;;0.40;0.40;;;4.80;99.90;;;;;;5042104;28;20516;-79
2020/12/28 07:11:37;;;;;;;0.60;0.60;;;4.90;99.90;;;;;;5040830;28;20230;-75
2020/12/28 07:14:06;;;;;;;0.50;0.50;;;4.90;99.90;;;;;;5041391;28;20580;-75
2020/12/28 07:16:32;;;;;;;0.70;0.70;;;4.90;99.90;;;;;;5038320;28;20668;-75
2020/12/28 07:19:04;;;;;;;1.13;0.60;;;4.90;99.90;;;;;;5038099;28;20458;-75
2020/12/28 07:21:30;;;;;;;1.07;0.77;;;4.90;99.90;;;;;;5036827;28;20985;-75
2020/12/28 07:23:55;;;;;;;0.60;0.60;;;4.90;99.90;;;;;;5036815;28;20415;-76
2020/12/28 07:26:21;;;;;;;0.60;0.60;;;4.90;99.90;;;;;;5038443;28;20523;-75
2020/12/28 07:28:47;;;;;;;0.60;0.60;;;4.90;99.90;;;;;;5037841;28;20189;-76
2020/12/28 07:31:12;;;;;;;1.63;0.57;;;4.80;99.90;;;;;;5041738;28;20648;-75
2020/12/28 07:33:48;;;;;;;1.23;0.80;;;4.80;99.90;;;;;;5038659;28;20205;-76
2020/12/28 07:36:15;;;;;;;0.40;0.40;;;4.80;99.90;;;;;;5039555;28;20679;-75
2020/12/28 07:38:45;;;;;;;0.73;0.50;;;4.70;99.90;;;;;;5041621;28;20576;-75
2020/12/28 07:41:18;;;;;;;0.50;0.40;;;4.70;99.90;;;;;;5039781;28;20517;-75
2020/12/28 07:43:50;;;;;;;0.50;0.50;;;4.60;99.90;;;;;;5040301;28;20476;-75
2020/12/28 07:46:25;;;;;;;2.63;0.67;;;4.60;99.90;;;;;;5042072;28;20442;-75
2020/12/28 07:48:53;;;;;;;1.17;0.63;;;4.60;99.90;;;;;;5037773;28;20425;-75
2020/12/28 07:51:21;;;;;;;0.60;0.60;;;4.50;99.90;;;;;;5040958;28;20997;-75
2020/12/28 07:53:52;;;;;;;0.60;0.60;;;4.50;99.90;;;;;;5041794;28;20525;-76
2020/12/28 07:56:25;;;;;;;0.93;0.60;;;4.50;99.90;;;;;;5040900;28;20441;-76
2020/12/28 07:59:07;;;;;;;2.37;1.00;;;4.50;99.90;;;;;;5038305;28;20432;-76
2020/12/28 08:01:41;;;;;;;0.70;0.70;;;4.50;99.90;;;;;;5036054;28;20415;-75
2020/12/28 08:04:10;;;;;;;1.23;0.90;;;4.50;99.90;;;;;;5042010;28;20455;-76
2020/12/28 08:06:35;;;;;;;1.77;0.80;;;4.50;99.90;;;;;;5039076;28;20792;-75
2020/12/28 08:09:03;;;;;;;1.20;0.80;;;4.50;99.90;;;;;;5043019;28;20416;-75
2020/12/28 08:11:30;;;;;;;1.10;1.07;;;4.60;99.90;;;;;;5039787;28;20665;-75
2020/12/28 08:13:56;;;;;;;3.63;0.70;;;4.50;99.90;;;;;;5035812;28;20528;-76
2020/12/28 08:16:22;;;;;;;0.77;0.70;;;4.60;99.90;;;;;;5042387;28;20412;-75
2020/12/28 08:18:50;;;;;;;0.70;0.70;;;4.60;99.90;;;;;;5040578;28;20450;-75
2020/12/28 08:21:17;;;;;;;0.90;0.80;;;4.50;99.90;;;;;;5041450;28;20258;-75
2020/12/28 08:24:16;;;;;;;1.47;0.90;;;4.50;99.90;;;;;;5039979;28;20528;-75
2020/12/28 08:26:42;;;;;;;2.20;0.93;;;4.50;99.90;;;;;;5039287;28;20815;-75
2020/12/28 08:29:08;;;;;;;0.60;0.60;;;4.50;99.90;;;;;;5041544;28;20770;-76
2020/12/28 08:31:35;;;;;;;0.50;0.50;;;4.40;99.90;;;;;;5038554;28;20437;-76
2020/12/28 08:34:15;;;;;;;1.53;0.70;;;4.40;99.90;;;;;;5041643;28;20478;-76
2020/12/28 08:36:50;;;;;;;0.57;0.57;;;4.40;99.90;;;;;;5041772;28;20794;-76
2020/12/28 08:39:18;;;;;;;3.43;0.70;;;4.40;99.90;;;;;;5040734;28;20458;-76
2020/12/28 08:41:55;;;;;;;7.20;1.83;;;4.50;99.90;;;;;;5035776;28;20888;-75
2020/12/28 08:44:31;;;;;;;6.10;0.50;;;4.50;99.90;;;;;;5038990;28;20536;-75
2020/12/28 08:46:57;;;;;;;3.60;0.70;;;4.50;99.90;;;;;;5035359;28;20413;-76
2020/12/28 08:49:32;;;;;;;0.77;0.40;;;4.50;99.90;;;;;;5038281;28;20421;-76
2020/12/28 08:52:14;;;;;;;11.80;1.40;;;4.50;99.90;;;;;;5033352;28;20520;-75
2020/12/28 08:54:40;;;;;;;5.10;0.50;;;4.50;99.90;;;;;;5034993;28;20954;-75
2020/12/28 08:57:17;;;;;;;19.30;2.37;;;4.60;99.90;;;;;;5039981;28;20445;-76
2020/12/28 08:59:43;;;;;;;0.80;0.47;;;4.60;99.90;;;;;;5036670;28;20781;-75
2020/12/28 09:02:17;;;;;;;12.60;2.10;;;4.60;99.90;;;;;;5038438;28;20959;-76
2020/12/28 09:04:44;;;;;;;0.80;0.40;;;4.60;99.90;;;;;;5036523;28;20182;-75
2020/12/28 09:07:10;;;;;;;1.40;0.50;;;4.60;99.90;;;;;;5038409;28;20432;-75
2020/12/28 09:09:38;;;;;;;1.27;0.40;;;4.70;99.90;;;;;;5037075;28;20447;-76
2020/12/28 09:12:03;;;;;;;14.73;1.90;;;4.80;99.90;;;;;;5035227;28;20306;-76
2020/12/28 09:14:29;;;;;;;79.60;6.13;;;4.90;99.90;;;;;;5042348;28;20486;-75
2020/12/28 09:16:54;;;;;;;12.37;1.83;;;4.90;99.90;;;;;;5037752;28;20668;-76
2020/12/28 09:19:20;;;;;;;1.00;0.60;;;4.90;99.90;;;;;;5040249;28;20722;-75
2020/12/28 09:21:45;;;;;;;3.50;0.67;;;4.90;99.90;;;;;;5040136;28;20276;-76
2020/12/28 09:24:11;;;;;;;4.10;0.77;;;4.80;99.90;;;;;;5039627;28;20187;-75
2020/12/28 09:26:37;;;;;;;0.80;0.63;;;4.80;99.90;;;;;;5039659;28;20182;-76
2020/12/28 09:29:03;;;;;;;0.57;0.57;;;4.80;99.90;;;;;;5038841;28;20191;-75
2020/12/28 09:31:28;;;;;;;1.70;0.90;;;4.80;99.90;;;;;;5039877;28;20773;-74
2020/12/28 09:33:54;;;;;;;0.67;0.67;;;4.80;99.90;;;;;;5035991;28;20178;-76
2020/12/28 09:36:20;;;;;;;1.03;0.60;;;4.80;99.90;;;;;;5039872;28;20183;-76
2020/12/28 09:38:46;;;;;;;3.20;1.00;;;4.80;99.90;;;;;;5038460;28;20183;-76
2020/12/28 09:41:12;;;;;;;0.60;0.57;;;4.80;99.90;;;;;;5040023;28;20994;-76
2020/12/28 09:43:39;;;;;;;0.50;0.50;;;4.90;99.90;;;;;;5038592;28;20561;-75
2020/12/28 09:46:05;;;;;;;1.03;0.70;;;4.90;99.90;;;;;;5035169;28;20177;-75
2020/12/28 09:48:31;;;;;;;0.50;0.50;;;4.90;99.90;;;;;;5041034;28;20840;-75
2020/12/28 09:50:57;;;;;;;1.53;1.07;;;4.90;99.90;;;;;;5037587;28;20190;-75
2020/12/28 09:53:22;;;;;;;1.03;0.70;;;5.00;99.90;;;;;;5038370;28;20936;-76
2020/12/28 09:55:48;;;;;;;1.53;0.70;;;5.10;99.90;;;;;;5040765;28;20662;-75
2020/12/28 09:58:13;;;;;;;0.83;0.73;;;5.10;99.90;;;;;;5037872;28;20201;-74
2020/12/28 10:00:39;;;;;;;1.37;0.97;;;5.10;99.90;;;;;;5035048;28;20215;-75
2020/12/28 10:03:04;;;;;;;1.20;0.77;;;5.10;99.90;;;;;;5033215;28;20693;-73
2020/12/28 10:05:30;;;;;;;1.80;0.77;;;5.20;99.90;;;;;;5030364;28;20191;-75
2020/12/28 10:07:55;;;;;;;0.97;0.70;;;5.30;99.90;;;;;;5033591;28;20185;-75
2020/12/28 10:10:21;;;;;;;1.90;0.80;;;5.30;99.90;;;;;;5037801;28;20195;-75
2020/12/28 10:12:46;;;;;;;0.77;0.70;;;5.30;99.90;;;;;;5041779;28;20219;-75
2020/12/28 10:15:12;;;;;;;3.80;0.83;;;5.30;99.90;;;;;;5043340;28;20187;-74
2020/12/28 10:17:37;;;;;;;3.30;1.13;;;5.30;99.90;;;;;;5044227;28;20264;-75
2020/12/28 10:20:04;;;;;;;1.10;1.00;;;5.40;99.90;;;;;;5041518;28;20204;-75
2020/12/28 10:22:29;;;;;;;1.00;0.90;;;5.40;99.90;;;;;;5039576;28;20276;-75
2020/12/28 10:24:55;;;;;;;1.13;1.00;;;5.40;99.90;;;;;;5045395;28;20418;-74
2020/12/28 10:27:20;;;;;;;1.20;1.17;;;5.50;99.90;;;;;;5040811;28;20185;-74
2020/12/28 10:29:46;;;;;;;0.70;0.70;;;5.50;99.90;;;;;;5042486;28;20184;-74
2020/12/28 10:32:12;;;;;;;1.87;1.00;;;5.60;99.90;;;;;;5042481;28;20222;-73
2020/12/28 10:34:37;;;;;;;1.30;1.20;;;5.60;99.90;;;;;;5042451;28;20188;-73
2020/12/28 10:37:03;;;;;;;2.30;1.93;;;5.70;99.90;;;;;;5043699;28;20234;-74
2020/12/28 10:39:28;;;;;;;1.87;1.77;;;5.60;99.90;;;;;;5041040;28;20208;-74
2020/12/28 10:41:54;;;;;;;1.90;1.80;;;5.70;99.90;;;;;;5043898;28;20560;-75
2020/12/28 10:44:19;;;;;;;1.67;1.57;;;5.60;99.90;;;;;;5040931;28;20231;-74
2020/12/28 10:46:45;;;;;;;2.23;1.63;;;5.70;99.90;;;;;;5044845;28;20631;-73
2020/12/28 10:49:11;;;;;;;1.40;1.30;;;5.60;99.90;;;;;;5042008;28;20191;-73
2020/12/28 10:51:37;;;;;;;2.40;1.43;;;5.60;99.90;;;;;;5040696;28;20574;-73
2020/12/28 10:54:03;;;;;;;3.07;2.37;;;5.50;99.90;;;;;;5044602;28;20177;-73
2020/12/28 10:56:30;;;;;;;1.83;1.63;;;5.50;99.90;;;;;;5041105;28;20264;-72
2020/12/28 10:58:57;;;;;;;1.50;1.40;;;5.40;99.90;;;;;;5037508;28;20467;-74
2020/12/28 11:01:24;;;;;;;2.30;1.70;;;5.50;99.90;;;;;;5040802;28;20407;-73
2020/12/28 11:03:51;;;;;;;1.57;1.47;;;5.50;99.90;;;;;;5040174;28;20434;-74
2020/12/28 11:06:20;;;;;;;4.20;2.07;;;5.50;99.90;;;;;;5040765;28;21006;-73
2020/12/28 11:08:47;;;;;;;2.07;1.87;;;5.60;99.90;;;;;;5042523;28;20948;-74
2020/12/28 11:11:12;;;;;;;2.73;1.83;;;5.60;99.90;;;;;;5032440;28;20471;-73
2020/12/28 11:13:38;;;;;;;1.63;1.53;;;5.50;99.90;;;;;;5038976;28;20614;-74
2020/12/28 11:16:04;;;;;;;2.20;2.00;;;5.60;99.90;;;;;;5032264;28;20181;-73
2020/12/28 11:18:29;;;;;;;2.03;1.90;;;5.60;99.90;;;;;;5035683;28;20193;-73
2020/12/28 11:20:55;;;;;;;2.00;1.90;;;5.60;99.90;;;;;;5036210;28;20217;-74
2020/12/28 11:23:20;;;;;;;4.20;2.93;;;5.70;99.90;;;;;;5034756;28;20221;-74
2020/12/28 11:25:46;;;;;;;5.50;2.37;;;5.70;99.90;;;;;;5043022;28;20179;-73
2020/12/28 11:28:11;;;;;;;4.73;1.80;;;5.80;99.90;;;;;;5046744;28;20192;-74
2020/12/28 11:30:37;;;;;;;1.40;1.30;;;5.90;99.90;;;;;;5035672;28;20197;-74
2020/12/28 11:33:03;;;;;;;2.57;1.87;;;5.80;99.90;;;;;;5039426;28;20673;-73
2020/12/28 11:35:29;;;;;;;2.17;2.07;;;5.80;99.90;;;;;;5040302;28;20245;-73
2020/12/28 11:37:55;;;;;;;2.63;2.20;;;5.90;99.90;;;;;;5035001;28;20501;-73
2020/12/28 11:40:21;;;;;;;2.30;2.20;;;5.90;99.90;;;;;;5042476;28;20476;-73
2020/12/28 11:42:46;;;;;;;3.60;1.90;;;5.80;99.90;;;;;;5043926;28;20205;-73
2020/12/28 11:45:12;;;;;;;1.70;1.60;;;5.70;99.90;;;;;;5038740;28;20522;-74
2020/12/28 11:47:38;;;;;;;2.40;2.20;;;5.70;99.90;;;;;;5036908;28;20220;-73
2020/12/28 11:50:05;;;;;;;1.63;1.53;;;5.90;99.90;;;;;;5040788;28;20216;-73
2020/12/28 11:52:30;;;;;;;1.90;1.80;;;5.90;99.90;;;;;;5038821;28;20810;-75
2020/12/28 11:54:56;;;;;;;1.60;1.47;;;6.00;99.90;;;;;;5039136;28;20478;-73
2020/12/28 11:57:22;;;;;;;1.90;1.77;;;6.10;99.90;;;;;;5042232;28;20648;-73
2020/12/28 11:59:47;;;;;;;2.30;2.20;;;6.10;99.90;;;;;;5040716;28;20211;-74
2020/12/28 12:02:31;;;;;;;2.57;2.00;;;6.10;99.90;;;;;;5044050;28;20593;-74
2020/12/28 12:04:57;;;;;;;2.67;2.17;;;6.10;99.90;;;;;;5034375;28;20189;-75
2020/12/28 12:07:24;;;;;;;2.60;2.37;;;6.10;99.90;;;;;;5023609;28;20440;-74
2020/12/28 12:09:50;;;;;;;3.03;2.43;;;6.10;99.90;;;;;;5034889;28;20185;-74
2020/12/28 12:12:17;;;;;;;2.80;1.80;;;6.00;99.90;;;;;;5019450;28;20474;-74
2020/12/28 12:14:42;;;;;;;2.23;1.93;;;6.00;99.90;;;;;;5034730;28;20791;-73
2020/12/28 12:17:08;;;;;;;2.10;2.00;;;6.10;99.90;;;;;;5038800;28;20428;-74
2020/12/28 12:19:34;;;;;;;2.70;1.80;;;6.00;99.90;;;;;;5035077;28;20209;-74
2020/12/28 12:22:00;;;;;;;3.10;1.93;;;6.00;99.90;;;;;;5034182;28;20451;-75
2020/12/28 12:24:26;;;;;;;1.50;1.40;;;6.00;99.90;;;;;;5034737;28;20425;-73
2020/12/28 12:26:51;;;;;;;3.60;2.20;;;6.10;99.90;;;;;;5026140;28;20227;-74
2020/12/28 12:29:17;;;;;;;2.10;1.60;;;6.10;99.90;;;;;;5038827;28;20210;-74
2020/12/28 12:31:43;;;;;;;1.40;1.30;;;6.20;99.90;;;;;;5021566;28;20213;-75
2020/12/28 12:34:08;;;;;;;4.10;1.30;;;6.20;99.90;;;;;;5034696;28;20171;-73
2020/12/28 12:36:35;;;;;;;2.10;1.50;;;6.10;99.90;;;;;;5022161;28;20184;-75
2020/12/28 12:39:00;;;;;;;2.00;1.90;;;6.10;99.90;;;;;;5048989;28;20727;-74
2020/12/28 12:41:26;;;;;;;2.40;1.80;;;6.10;99.90;;;;;;5022639;28;20417;-75
2020/12/28 12:43:51;;;;;;;2.53;1.87;;;6.00;99.90;;;;;;5018554;28;20656;-74
2020/12/28 12:46:17;;;;;;;4.07;1.83;;;6.00;99.90;;;;;;5029933;28;20189;-74
2020/12/28 12:48:44;;;;;;;2.37;2.03;;;5.90;99.90;;;;;;5038158;28;20188;-72
2020/12/28 12:51:10;;;;;;;3.70;1.90;;;5.90;99.90;;;;;;5040460;28;20179;-74
2020/12/28 12:53:36;;;;;;;1.90;1.80;;;5.80;99.90;;;;;;5035183;28;20495;-73
2020/12/28 12:56:02;;;;;;;2.30;1.57;;;5.80;99.90;;;;;;5037616;28;20432;-72